sensor_id;sensor_type;location;lat;lon;timestamp;pressure;altitude;pressure_sealevel;temperature
7389;BMP180;3735;50.136;11.062;2023-08-24T00:01:17;98482.00;;;16.50
7389;BMP180;3735;50.136;11.062;2023-08-24T00:03:46;98484.00;;;16.50
7389;BMP180;3735;50.136;11.062;2023-08-24T00:06:12;98477.00;;;16.50
7389;BMP180;3735;50.136;11.062;2023-08-24T00:08:38;98470.00;;;16.40
7389;BMP180;3735;50.136;11.062;2023-08-24T00:11:04;98482.00;;;16.30
7389;BMP180;3735;50.136;11.062;2023-08-24T00:13:31;98478.00;;;16.30
7389;BMP180;3735;50.136;11.062;2023-08-24T00:15:57;98477.00;;;16.30
7389;BMP180;3735;50.136;11.062;2023-08-24T00:18:25;98464.00;;;16.30
7389;BMP180;3735;50.136;11.062;2023-08-24T00:20:51;98470.00;;;16.20
7389;BMP180;3735;50.136;11.062;2023-08-24T00:23:17;98464.00;;;16.10
7389;BMP180;3735;50.136;11.062;2023-08-24T00:25:43;98459.00;;;16.10
7389;BMP180;3735;50.136;11.062;2023-08-24T00:28:10;98452.00;;;16.00
7389;BMP180;3735;50.136;11.062;2023-08-24T00:30:37;98461.00;;;16.00
7389;BMP180;3735;50.136;11.062;2023-08-24T00:33:03;98461.00;;;16.00
7389;BMP180;3735;50.136;11.062;2023-08-24T00:35:29;98453.00;;;16.10
7389;BMP180;3735;50.136;11.062;2023-08-24T00:37:56;98450.00;;;16.10
7389;BMP180;3735;50.136;11.062;2023-08-24T00:40:22;98443.00;;;16.10
7389;BMP180;3735;50.136;11.062;2023-08-24T00:42:48;98447.00;;;16.00
7389;BMP180;3735;50.136;11.062;2023-08-24T00:45:14;98444.00;;;15.90
7389;BMP180;3735;50.136;11.062;2023-08-24T00:47:43;98442.00;;;15.90
7389;BMP180;3735;50.136;11.062;2023-08-24T00:50:10;98432.00;;;15.90
7389;BMP180;3735;50.136;11.062;2023-08-24T00:52:39;98447.00;;;15.90
7389;BMP180;3735;50.136;11.062;2023-08-24T00:55:07;98440.00;;;15.90
7389;BMP180;3735;50.136;11.062;2023-08-24T00:57:33;98437.00;;;15.90
7389;BMP180;3735;50.136;11.062;2023-08-24T01:00:05;98443.00;;;15.80
7389;BMP180;3735;50.136;11.062;2023-08-24T01:02:32;98433.00;;;15.80
7389;BMP180;3735;50.136;11.062;2023-08-24T01:04:58;98436.00;;;15.80
7389;BMP180;3735;50.136;11.062;2023-08-24T01:07:25;98440.00;;;15.80
7389;BMP180;3735;50.136;11.062;2023-08-24T01:09:51;98437.00;;;15.70
7389;BMP180;3735;50.136;11.062;2023-08-24T01:13:07;98436.00;;;15.70
7389;BMP180;3735;50.136;11.062;2023-08-24T01:15:49;98437.00;;;15.70
7389;BMP180;3735;50.136;11.062;2023-08-24T01:18:19;98438.00;;;15.70
7389;BMP180;3735;50.136;11.062;2023-08-24T01:20:47;98440.00;;;15.70
7389;BMP180;3735;50.136;11.062;2023-08-24T01:26:27;98430.00;;;15.60
7389;BMP180;3735;50.136;11.062;2023-08-24T01:28:54;98434.00;;;15.50
7389;BMP180;3735;50.136;11.062;2023-08-24T01:31:20;98436.00;;;15.50
7389;BMP180;3735;50.136;11.062;2023-08-24T01:33:46;98430.00;;;15.50
7389;BMP180;3735;50.136;11.062;2023-08-24T01:36:15;98433.00;;;15.50
7389;BMP180;3735;50.136;11.062;2023-08-24T01:38:42;98430.00;;;15.50
7389;BMP180;3735;50.136;11.062;2023-08-24T01:41:24;98437.00;;;15.40
7389;BMP180;3735;50.136;11.062;2023-08-24T01:43:54;98431.00;;;15.40
7389;BMP180;3735;50.136;11.062;2023-08-24T01:46:22;98435.00;;;15.40
7389;BMP180;3735;50.136;11.062;2023-08-24T01:48:51;98432.00;;;15.40
7389;BMP180;3735;50.136;11.062;2023-08-24T01:51:19;98427.00;;;15.40
7389;BMP180;3735;50.136;11.062;2023-08-24T01:53:45;98426.00;;;15.50
7389;BMP180;3735;50.136;11.062;2023-08-24T01:56:14;98425.00;;;15.40
7389;BMP180;3735;50.136;11.062;2023-08-24T01:58:40;98420.00;;;15.40
7389;BMP180;3735;50.136;11.062;2023-08-24T02:01:08;98421.00;;;15.40
7389;BMP180;3735;50.136;11.062;2023-08-24T02:03:34;98414.00;;;15.40
7389;BMP180;3735;50.136;11.062;2023-08-24T02:06:00;98412.00;;;15.40
7389;BMP180;3735;50.136;11.062;2023-08-24T02:08:26;98400.00;;;15.40
7389;BMP180;3735;50.136;11.062;2023-08-24T02:10:52;98400.00;;;15.40
7389;BMP180;3735;50.136;11.062;2023-08-24T02:13:17;98405.00;;;15.40
7389;BMP180;3735;50.136;11.062;2023-08-24T02:15:43;98405.00;;;15.40
7389;BMP180;3735;50.136;11.062;2023-08-24T02:18:09;98402.00;;;15.40
7389;BMP180;3735;50.136;11.062;2023-08-24T02:20:37;98407.00;;;15.30
7389;BMP180;3735;50.136;11.062;2023-08-24T02:23:04;98404.00;;;15.20
7389;BMP180;3735;50.136;11.062;2023-08-24T02:25:30;98404.00;;;15.30
7389;BMP180;3735;50.136;11.062;2023-08-24T02:27:55;98392.00;;;15.30
7389;BMP180;3735;50.136;11.062;2023-08-24T02:30:21;98396.00;;;15.30
7389;BMP180;3735;50.136;11.062;2023-08-24T02:32:47;98402.00;;;15.20
7389;BMP180;3735;50.136;11.062;2023-08-24T02:35:13;98397.00;;;15.30
7389;BMP180;3735;50.136;11.062;2023-08-24T02:37:39;98399.00;;;15.30
7389;BMP180;3735;50.136;11.062;2023-08-24T02:40:05;98400.00;;;15.30
7389;BMP180;3735;50.136;11.062;2023-08-24T02:42:33;98403.00;;;15.30
7389;BMP180;3735;50.136;11.062;2023-08-24T02:44:59;98413.00;;;15.30
7389;BMP180;3735;50.136;11.062;2023-08-24T02:47:24;98401.00;;;15.20
7389;BMP180;3735;50.136;11.062;2023-08-24T02:49:50;98406.00;;;15.30
7389;BMP180;3735;50.136;11.062;2023-08-24T02:52:16;98421.00;;;15.30
7389;BMP180;3735;50.136;11.062;2023-08-24T02:54:42;98407.00;;;15.30
7389;BMP180;3735;50.136;11.062;2023-08-24T02:57:08;98398.00;;;15.30
7389;BMP180;3735;50.136;11.062;2023-08-24T02:59:34;98410.00;;;15.20
7389;BMP180;3735;50.136;11.062;2023-08-24T03:02:00;98420.00;;;15.20
7389;BMP180;3735;50.136;11.062;2023-08-24T03:04:25;98413.00;;;15.10
7389;BMP180;3735;50.136;11.062;2023-08-24T03:06:51;98416.00;;;15.10
7389;BMP180;3735;50.136;11.062;2023-08-24T03:09:17;98410.00;;;15.10
7389;BMP180;3735;50.136;11.062;2023-08-24T03:11:43;98418.00;;;15.00
7389;BMP180;3735;50.136;11.062;2023-08-24T03:14:09;98418.00;;;15.00
7389;BMP180;3735;50.136;11.062;2023-08-24T03:16:37;98420.00;;;15.00
7389;BMP180;3735;50.136;11.062;2023-08-24T03:19:03;98419.00;;;15.00
7389;BMP180;3735;50.136;11.062;2023-08-24T03:21:29;98421.00;;;15.00
7389;BMP180;3735;50.136;11.062;2023-08-24T03:23:56;98423.00;;;14.90
7389;BMP180;3735;50.136;11.062;2023-08-24T03:26:21;98432.00;;;14.90
7389;BMP180;3735;50.136;11.062;2023-08-24T03:28:49;98430.00;;;14.80
7389;BMP180;3735;50.136;11.062;2023-08-24T03:31:16;98429.00;;;14.80
7389;BMP180;3735;50.136;11.062;2023-08-24T03:33:42;98422.00;;;14.80
7389;BMP180;3735;50.136;11.062;2023-08-24T03:36:07;98420.00;;;14.70
7389;BMP180;3735;50.136;11.062;2023-08-24T03:38:33;98421.00;;;14.60
7389;BMP180;3735;50.136;11.062;2023-08-24T03:41:03;98417.00;;;14.70
7389;BMP180;3735;50.136;11.062;2023-08-24T03:43:33;98417.00;;;14.70
7389;BMP180;3735;50.136;11.062;2023-08-24T03:46:00;98424.00;;;14.60
7389;BMP180;3735;50.136;11.062;2023-08-24T03:48:27;98415.00;;;14.60
7389;BMP180;3735;50.136;11.062;2023-08-24T03:50:57;98409.00;;;14.60
7389;BMP180;3735;50.136;11.062;2023-08-24T03:53:24;98406.00;;;14.70
7389;BMP180;3735;50.136;11.062;2023-08-24T03:55:52;98404.00;;;14.70
7389;BMP180;3735;50.136;11.062;2023-08-24T03:58:18;98388.00;;;14.70
7389;BMP180;3735;50.136;11.062;2023-08-24T04:00:44;98404.00;;;14.70
7389;BMP180;3735;50.136;11.062;2023-08-24T04:03:11;98404.00;;;14.70
7389;BMP180;3735;50.136;11.062;2023-08-24T04:05:37;98401.00;;;14.70
7389;BMP180;3735;50.136;11.062;2023-08-24T04:08:03;98408.00;;;14.70
7389;BMP180;3735;50.136;11.062;2023-08-24T04:10:30;98412.00;;;14.70
7389;BMP180;3735;50.136;11.062;2023-08-24T04:12:56;98403.00;;;14.70
7389;BMP180;3735;50.136;11.062;2023-08-24T04:15:22;98405.00;;;14.80
7389;BMP180;3735;50.136;11.062;2023-08-24T04:17:49;98404.00;;;14.80
7389;BMP180;3735;50.136;11.062;2023-08-24T04:20:15;98400.00;;;14.90
7389;BMP180;3735;50.136;11.062;2023-08-24T04:22:42;98398.00;;;14.90
7389;BMP180;3735;50.136;11.062;2023-08-24T04:25:08;98408.00;;;14.90
7389;BMP180;3735;50.136;11.062;2023-08-24T04:27:34;98399.00;;;14.90
7389;BMP180;3735;50.136;11.062;2023-08-24T04:30:00;98402.00;;;14.90
7389;BMP180;3735;50.136;11.062;2023-08-24T04:32:27;98399.00;;;14.90
7389;BMP180;3735;50.136;11.062;2023-08-24T04:34:53;98397.00;;;14.80
7389;BMP180;3735;50.136;11.062;2023-08-24T04:37:19;98399.00;;;14.90
7389;BMP180;3735;50.136;11.062;2023-08-24T04:39:46;98403.00;;;14.80
7389;BMP180;3735;50.136;11.062;2023-08-24T04:42:11;98403.00;;;14.90
7389;BMP180;3735;50.136;11.062;2023-08-24T04:44:37;98400.00;;;14.90
7389;BMP180;3735;50.136;11.062;2023-08-24T04:47:03;98398.00;;;14.90
7389;BMP180;3735;50.136;11.062;2023-08-24T04:49:32;98407.00;;;15.00
7389;BMP180;3735;50.136;11.062;2023-08-24T04:51:57;98414.00;;;15.10
7389;BMP180;3735;50.136;11.062;2023-08-24T04:54:23;98410.00;;;15.20
7389;BMP180;3735;50.136;11.062;2023-08-24T04:56:49;98401.00;;;15.40
7389;BMP180;3735;50.136;11.062;2023-08-24T04:59:15;98415.00;;;15.60
7389;BMP180;3735;50.136;11.062;2023-08-24T05:01:43;98397.00;;;16.10
7389;BMP180;3735;50.136;11.062;2023-08-24T05:04:09;98418.00;;;16.50
7389;BMP180;3735;50.136;11.062;2023-08-24T05:06:34;98416.00;;;17.10
7389;BMP180;3735;50.136;11.062;2023-08-24T05:09:00;98414.00;;;17.50
7389;BMP180;3735;50.136;11.062;2023-08-24T05:11:28;98422.00;;;17.80
7389;BMP180;3735;50.136;11.062;2023-08-24T05:13:57;98421.00;;;18.20
7389;BMP180;3735;50.136;11.062;2023-08-24T05:16:23;98417.00;;;18.70
7389;BMP180;3735;50.136;11.062;2023-08-24T05:18:48;98411.00;;;19.20
7389;BMP180;3735;50.136;11.062;2023-08-24T05:21:14;98416.00;;;19.60
7389;BMP180;3735;50.136;11.062;2023-08-24T05:23:40;98407.00;;;19.90
7389;BMP180;3735;50.136;11.062;2023-08-24T05:26:06;98404.00;;;20.20
7389;BMP180;3735;50.136;11.062;2023-08-24T05:28:32;98394.00;;;20.40
7389;BMP180;3735;50.136;11.062;2023-08-24T05:30:59;98393.00;;;20.50
7389;BMP180;3735;50.136;11.062;2023-08-24T05:33:26;98393.00;;;20.70
7389;BMP180;3735;50.136;11.062;2023-08-24T05:35:52;98387.00;;;20.90
7389;BMP180;3735;50.136;11.062;2023-08-24T05:38:19;98384.00;;;21.20
7389;BMP180;3735;50.136;11.062;2023-08-24T05:40:48;98386.00;;;21.70
7389;BMP180;3735;50.136;11.062;2023-08-24T05:43:15;98378.00;;;21.90
7389;BMP180;3735;50.136;11.062;2023-08-24T05:45:41;98363.00;;;22.40
7389;BMP180;3735;50.136;11.062;2023-08-24T05:48:09;98357.00;;;22.70
7389;BMP180;3735;50.136;11.062;2023-08-24T05:50:35;98349.00;;;23.00
7389;BMP180;3735;50.136;11.062;2023-08-24T05:53:03;98340.00;;;22.90
7389;BMP180;3735;50.136;11.062;2023-08-24T05:55:29;98356.00;;;22.50
7389;BMP180;3735;50.136;11.062;2023-08-24T05:57:55;98354.00;;;22.60
7389;BMP180;3735;50.136;11.062;2023-08-24T06:00:21;98353.00;;;23.00
7389;BMP180;3735;50.136;11.062;2023-08-24T06:02:48;98348.00;;;22.60
7389;BMP180;3735;50.136;11.062;2023-08-24T06:05:13;98356.00;;;22.90
7389;BMP180;3735;50.136;11.062;2023-08-24T06:07:39;98355.00;;;22.90
7389;BMP180;3735;50.136;11.062;2023-08-24T06:10:06;98360.00;;;23.00
7389;BMP180;3735;50.136;11.062;2023-08-24T06:12:32;98354.00;;;23.10
7389;BMP180;3735;50.136;11.062;2023-08-24T06:14:57;98359.00;;;23.00
7389;BMP180;3735;50.136;11.062;2023-08-24T06:17:23;98356.00;;;23.90
7389;BMP180;3735;50.136;11.062;2023-08-24T06:19:49;98355.00;;;24.20
7389;BMP180;3735;50.136;11.062;2023-08-24T06:22:15;98339.00;;;25.30
7389;BMP180;3735;50.136;11.062;2023-08-24T06:24:40;98342.00;;;25.80
7389;BMP180;3735;50.136;11.062;2023-08-24T06:27:06;98338.00;;;26.10
7389;BMP180;3735;50.136;11.062;2023-08-24T06:29:32;98337.00;;;26.40
7389;BMP180;3735;50.136;11.062;2023-08-24T06:31:58;98336.00;;;26.60
7389;BMP180;3735;50.136;11.062;2023-08-24T06:34:23;98331.00;;;26.70
7389;BMP180;3735;50.136;11.062;2023-08-24T06:36:53;98330.00;;;26.90
7389;BMP180;3735;50.136;11.062;2023-08-24T06:39:19;98321.00;;;27.00
7389;BMP180;3735;50.136;11.062;2023-08-24T06:41:45;98318.00;;;27.40
7389;BMP180;3735;50.136;11.062;2023-08-24T06:44:10;98322.00;;;27.30
7389;BMP180;3735;50.136;11.062;2023-08-24T06:46:36;98316.00;;;26.10
7389;BMP180;3735;50.136;11.062;2023-08-24T06:49:02;98316.00;;;26.10
7389;BMP180;3735;50.136;11.062;2023-08-24T06:51:28;98319.00;;;27.00
7389;BMP180;3735;50.136;11.062;2023-08-24T06:53:54;98314.00;;;27.40
7389;BMP180;3735;50.136;11.062;2023-08-24T06:56:20;98310.00;;;27.90
7389;BMP180;3735;50.136;11.062;2023-08-24T06:58:48;98309.00;;;28.60
7389;BMP180;3735;50.136;11.062;2023-08-24T07:01:14;98310.00;;;28.90
7389;BMP180;3735;50.136;11.062;2023-08-24T07:03:40;98335.00;;;28.50
7389;BMP180;3735;50.136;11.062;2023-08-24T07:06:06;98348.00;;;27.00
7389;BMP180;3735;50.136;11.062;2023-08-24T07:08:37;98357.00;;;25.40
7389;BMP180;3735;50.136;11.062;2023-08-24T07:11:03;98363.00;;;24.80
7389;BMP180;3735;50.136;11.062;2023-08-24T07:13:29;98375.00;;;24.30
7389;BMP180;3735;50.136;11.062;2023-08-24T07:15:55;98372.00;;;23.80
7389;BMP180;3735;50.136;11.062;2023-08-24T07:18:22;98380.00;;;23.50
7389;BMP180;3735;50.136;11.062;2023-08-24T07:20:48;98371.00;;;23.40
7389;BMP180;3735;50.136;11.062;2023-08-24T07:23:13;98369.00;;;24.20
7389;BMP180;3735;50.136;11.062;2023-08-24T07:25:39;98372.00;;;25.80
7389;BMP180;3735;50.136;11.062;2023-08-24T07:28:06;98381.00;;;27.10
7389;BMP180;3735;50.136;11.062;2023-08-24T07:30:35;98384.00;;;28.10
7389;BMP180;3735;50.136;11.062;2023-08-24T07:33:02;98386.00;;;27.60
7389;BMP180;3735;50.136;11.062;2023-08-24T07:35:31;98401.00;;;29.00
7389;BMP180;3735;50.136;11.062;2023-08-24T07:37:57;98410.00;;;29.90
7389;BMP180;3735;50.136;11.062;2023-08-24T07:40:24;98405.00;;;30.90
7389;BMP180;3735;50.136;11.062;2023-08-24T07:42:51;98403.00;;;32.00
7389;BMP180;3735;50.136;11.062;2023-08-24T07:45:22;98405.00;;;32.70
7389;BMP180;3735;50.136;11.062;2023-08-24T07:47:52;98414.00;;;32.70
7389;BMP180;3735;50.136;11.062;2023-08-24T07:50:18;98410.00;;;33.50
7389;BMP180;3735;50.136;11.062;2023-08-24T07:52:43;98412.00;;;34.00
7389;BMP180;3735;50.136;11.062;2023-08-24T07:55:09;98415.00;;;34.10
7389;BMP180;3735;50.136;11.062;2023-08-24T07:57:38;98426.00;;;34.00
7389;BMP180;3735;50.136;11.062;2023-08-24T08:00:05;98422.00;;;34.70
7389;BMP180;3735;50.136;11.062;2023-08-24T08:02:31;98430.00;;;34.80
7389;BMP180;3735;50.136;11.062;2023-08-24T08:05:00;98422.00;;;34.90
7389;BMP180;3735;50.136;11.062;2023-08-24T08:07:28;98422.00;;;35.40
7389;BMP180;3735;50.136;11.062;2023-08-24T08:09:54;98419.00;;;35.70
7389;BMP180;3735;50.136;11.062;2023-08-24T08:12:22;98415.00;;;36.40
7389;BMP180;3735;50.136;11.062;2023-08-24T08:14:47;98410.00;;;35.80
7389;BMP180;3735;50.136;11.062;2023-08-24T08:17:13;98404.00;;;35.60
7389;BMP180;3735;50.136;11.062;2023-08-24T08:19:39;98408.00;;;35.40
7389;BMP180;3735;50.136;11.062;2023-08-24T08:22:05;98411.00;;;36.10
7389;BMP180;3735;50.136;11.062;2023-08-24T08:24:31;98417.00;;;36.50
7389;BMP180;3735;50.136;11.062;2023-08-24T08:26:57;98421.00;;;37.00
7389;BMP180;3735;50.136;11.062;2023-08-24T08:29:22;98415.00;;;37.60
7389;BMP180;3735;50.136;11.062;2023-08-24T08:31:48;98419.00;;;36.30
7389;BMP180;3735;50.136;11.062;2023-08-24T08:34:14;98418.00;;;36.40
7389;BMP180;3735;50.136;11.062;2023-08-24T08:36:40;98420.00;;;36.40
7389;BMP180;3735;50.136;11.062;2023-08-24T08:39:05;98416.00;;;37.30
7389;BMP180;3735;50.136;11.062;2023-08-24T08:41:41;98418.00;;;37.70
7389;BMP180;3735;50.136;11.062;2023-08-24T08:44:10;98407.00;;;36.00
7389;BMP180;3735;50.136;11.062;2023-08-24T08:46:40;98423.00;;;35.70
7389;BMP180;3735;50.136;11.062;2023-08-24T08:49:07;98423.00;;;34.60
7389;BMP180;3735;50.136;11.062;2023-08-24T08:51:36;98419.00;;;33.30
7389;BMP180;3735;50.136;11.062;2023-08-24T08:54:03;98411.00;;;32.50
7389;BMP180;3735;50.136;11.062;2023-08-24T08:56:32;98412.00;;;32.20
7389;BMP180;3735;50.136;11.062;2023-08-24T08:58:59;98401.00;;;31.20
7389;BMP180;3735;50.136;11.062;2023-08-24T09:01:30;98394.00;;;30.30
7389;BMP180;3735;50.136;11.062;2023-08-24T09:03:57;98360.00;;;29.60
7389;BMP180;3735;50.136;11.062;2023-08-24T09:06:23;98339.00;;;29.20
7389;BMP180;3735;50.136;11.062;2023-08-24T09:08:50;98315.00;;;28.60
7389;BMP180;3735;50.136;11.062;2023-08-24T09:11:17;98326.00;;;27.90
7389;BMP180;3735;50.136;11.062;2023-08-24T09:13:45;98336.00;;;27.80
7389;BMP180;3735;50.136;11.062;2023-08-24T09:16:11;98354.00;;;27.90
7389;BMP180;3735;50.136;11.062;2023-08-24T09:18:46;98347.00;;;27.60
7389;BMP180;3735;50.136;11.062;2023-08-24T09:21:16;98341.00;;;27.90
7389;BMP180;3735;50.136;11.062;2023-08-24T09:23:45;98335.00;;;28.40
7389;BMP180;3735;50.136;11.062;2023-08-24T09:26:27;98338.00;;;28.90
7389;BMP180;3735;50.136;11.062;2023-08-24T09:28:53;98335.00;;;29.20
7389;BMP180;3735;50.136;11.062;2023-08-24T09:31:19;98333.00;;;29.50
7389;BMP180;3735;50.136;11.062;2023-08-24T09:33:47;98326.00;;;30.50
7389;BMP180;3735;50.136;11.062;2023-08-24T09:36:14;98327.00;;;31.80
7389;BMP180;3735;50.136;11.062;2023-08-24T09:38:47;98311.00;;;32.70
7389;BMP180;3735;50.136;11.062;2023-08-24T09:41:16;98309.00;;;33.80
7389;BMP180;3735;50.136;11.062;2023-08-24T09:43:42;98309.00;;;33.70
7389;BMP180;3735;50.136;11.062;2023-08-24T09:46:07;98300.00;;;33.20
7389;BMP180;3735;50.136;11.062;2023-08-24T09:48:33;98278.00;;;33.30
7389;BMP180;3735;50.136;11.062;2023-08-24T09:51:04;98265.00;;;34.10
7389;BMP180;3735;50.136;11.062;2023-08-24T09:53:33;98260.00;;;35.50
7389;BMP180;3735;50.136;11.062;2023-08-24T09:56:02;98265.00;;;35.90
7389;BMP180;3735;50.136;11.062;2023-08-24T09:58:29;98259.00;;;35.80
7389;BMP180;3735;50.136;11.062;2023-08-24T10:00:56;98267.00;;;36.90
7389;BMP180;3735;50.136;11.062;2023-08-24T10:03:26;98261.00;;;37.90
7389;BMP180;3735;50.136;11.062;2023-08-24T10:05:58;98258.00;;;37.70
7389;BMP180;3735;50.136;11.062;2023-08-24T10:08:55;98273.00;;;35.90
7389;BMP180;3735;50.136;11.062;2023-08-24T10:11:28;98268.00;;;34.80
7389;BMP180;3735;50.136;11.062;2023-08-24T10:15:02;98271.00;;;34.90
7389;BMP180;3735;50.136;11.062;2023-08-24T10:17:31;98263.00;;;35.50
7389;BMP180;3735;50.136;11.062;2023-08-24T10:19:59;98260.00;;;36.00
7389;BMP180;3735;50.136;11.062;2023-08-24T10:22:31;98267.00;;;35.80
7389;BMP180;3735;50.136;11.062;2023-08-24T10:25:00;98258.00;;;35.40
7389;BMP180;3735;50.136;11.062;2023-08-24T10:27:28;98269.00;;;34.50
7389;BMP180;3735;50.136;11.062;2023-08-24T10:29:56;98263.00;;;34.40
7389;BMP180;3735;50.136;11.062;2023-08-24T10:32:23;98265.00;;;34.10
7389;BMP180;3735;50.136;11.062;2023-08-24T10:34:50;98256.00;;;33.50
7389;BMP180;3735;50.136;11.062;2023-08-24T10:37:17;98244.00;;;32.70
7389;BMP180;3735;50.136;11.062;2023-08-24T10:39:47;98249.00;;;32.80
7389;BMP180;3735;50.136;11.062;2023-08-24T10:42:14;98234.00;;;32.60
7389;BMP180;3735;50.136;11.062;2023-08-24T10:44:44;98216.00;;;32.50
7389;BMP180;3735;50.136;11.062;2023-08-24T10:47:13;98213.00;;;32.50
7389;BMP180;3735;50.136;11.062;2023-08-24T10:49:44;98206.00;;;33.50
7389;BMP180;3735;50.136;11.062;2023-08-24T10:54:55;98185.00;;;36.30
7389;BMP180;3735;50.136;11.062;2023-08-24T10:57:27;98186.00;;;37.00
7389;BMP180;3735;50.136;11.062;2023-08-24T11:02:49;98183.00;;;37.40
7389;BMP180;3735;50.136;11.062;2023-08-24T11:05:29;98177.00;;;36.90
7389;BMP180;3735;50.136;11.062;2023-08-24T11:08:05;98169.00;;;36.30
7389;BMP180;3735;50.136;11.062;2023-08-24T11:13:13;98166.00;;;36.50
7389;BMP180;3735;50.136;11.062;2023-08-24T11:15:41;98165.00;;;35.80
7389;BMP180;3735;50.136;11.062;2023-08-24T11:18:14;98162.00;;;36.70
7389;BMP180;3735;50.136;11.062;2023-08-24T11:20:46;98153.00;;;37.50
7389;BMP180;3735;50.136;11.062;2023-08-24T11:23:15;98151.00;;;37.60
7389;BMP180;3735;50.136;11.062;2023-08-24T11:25:42;98149.00;;;37.60
7389;BMP180;3735;50.136;11.062;2023-08-24T11:28:08;98147.00;;;38.80
7389;BMP180;3735;50.136;11.062;2023-08-24T11:30:34;98149.00;;;38.60
7389;BMP180;3735;50.136;11.062;2023-08-24T11:33:02;98150.00;;;38.20
7389;BMP180;3735;50.136;11.062;2023-08-24T11:35:29;98155.00;;;37.30
7389;BMP180;3735;50.136;11.062;2023-08-24T11:37:56;98152.00;;;37.30
7389;BMP180;3735;50.136;11.062;2023-08-24T11:40:22;98150.00;;;37.60
7389;BMP180;3735;50.136;11.062;2023-08-24T11:42:57;98142.00;;;39.00
7389;BMP180;3735;50.136;11.062;2023-08-24T11:45:24;98144.00;;;39.60
7389;BMP180;3735;50.136;11.062;2023-08-24T11:47:50;98142.00;;;39.50
7389;BMP180;3735;50.136;11.062;2023-08-24T11:50:17;98142.00;;;39.40
7389;BMP180;3735;50.136;11.062;2023-08-24T11:52:43;98144.00;;;38.80
7389;BMP180;3735;50.136;11.062;2023-08-24T11:55:10;98146.00;;;38.70
7389;BMP180;3735;50.136;11.062;2023-08-24T11:57:36;98145.00;;;37.40
7389;BMP180;3735;50.136;11.062;2023-08-24T12:00:04;98147.00;;;37.70
7389;BMP180;3735;50.136;11.062;2023-08-24T12:02:31;98149.00;;;38.80
7389;BMP180;3735;50.136;11.062;2023-08-24T12:04:58;98149.00;;;38.30
7389;BMP180;3735;50.136;11.062;2023-08-24T12:07:24;98140.00;;;39.50
7389;BMP180;3735;50.136;11.062;2023-08-24T12:09:52;98134.00;;;39.80
7389;BMP180;3735;50.136;11.062;2023-08-24T12:12:21;98125.00;;;39.60
7389;BMP180;3735;50.136;11.062;2023-08-24T12:14:49;98130.00;;;39.70
7389;BMP180;3735;50.136;11.062;2023-08-24T12:17:16;98130.00;;;39.70
7389;BMP180;3735;50.136;11.062;2023-08-24T12:19:45;98127.00;;;39.80
7389;BMP180;3735;50.136;11.062;2023-08-24T12:22:15;98136.00;;;39.30
7389;BMP180;3735;50.136;11.062;2023-08-24T12:24:48;98131.00;;;39.10
7389;BMP180;3735;50.136;11.062;2023-08-24T12:27:22;98120.00;;;39.30
7389;BMP180;3735;50.136;11.062;2023-08-24T12:29:49;98123.00;;;39.40
7389;BMP180;3735;50.136;11.062;2023-08-24T12:32:16;98118.00;;;40.20
7389;BMP180;3735;50.136;11.062;2023-08-24T12:34:46;98116.00;;;39.20
7389;BMP180;3735;50.136;11.062;2023-08-24T12:37:12;98113.00;;;39.40
7389;BMP180;3735;50.136;11.062;2023-08-24T12:39:39;98107.00;;;40.10
7389;BMP180;3735;50.136;11.062;2023-08-24T12:42:06;98115.00;;;39.30
7389;BMP180;3735;50.136;11.062;2023-08-24T12:44:32;98118.00;;;40.30
7389;BMP180;3735;50.136;11.062;2023-08-24T12:47:02;98113.00;;;39.10
7389;BMP180;3735;50.136;11.062;2023-08-24T12:49:28;98104.00;;;38.80
7389;BMP180;3735;50.136;11.062;2023-08-24T12:51:54;98107.00;;;37.60
7389;BMP180;3735;50.136;11.062;2023-08-24T12:54:19;98100.00;;;37.40
7389;BMP180;3735;50.136;11.062;2023-08-24T12:56:45;98099.00;;;37.40
7389;BMP180;3735;50.136;11.062;2023-08-24T12:59:11;98087.00;;;37.30
7389;BMP180;3735;50.136;11.062;2023-08-24T13:01:40;98077.00;;;36.30
7389;BMP180;3735;50.136;11.062;2023-08-24T13:04:05;98069.00;;;35.20
7389;BMP180;3735;50.136;11.062;2023-08-24T13:06:32;98068.00;;;35.70
7389;BMP180;3735;50.136;11.062;2023-08-24T13:08:58;98066.00;;;35.60
7389;BMP180;3735;50.136;11.062;2023-08-24T13:11:24;98062.00;;;34.70
7389;BMP180;3735;50.136;11.062;2023-08-24T13:13:50;98055.00;;;35.10
7389;BMP180;3735;50.136;11.062;2023-08-24T13:16:16;98047.00;;;35.80
7389;BMP180;3735;50.136;11.062;2023-08-24T13:18:42;98043.00;;;34.90
7389;BMP180;3735;50.136;11.062;2023-08-24T13:21:08;98042.00;;;36.00
7389;BMP180;3735;50.136;11.062;2023-08-24T13:23:33;98035.00;;;36.70
7389;BMP180;3735;50.136;11.062;2023-08-24T13:26:00;98031.00;;;37.20
7389;BMP180;3735;50.136;11.062;2023-08-24T13:28:27;98024.00;;;37.00
7389;BMP180;3735;50.136;11.062;2023-08-24T13:30:53;98031.00;;;37.10
7389;BMP180;3735;50.136;11.062;2023-08-24T13:33:19;98035.00;;;37.70
7389;BMP180;3735;50.136;11.062;2023-08-24T13:35:45;98017.00;;;38.50
7389;BMP180;3735;50.136;11.062;2023-08-24T13:38:11;98022.00;;;39.30
7389;BMP180;3735;50.136;11.062;2023-08-24T13:40:37;98016.00;;;39.80
7389;BMP180;3735;50.136;11.062;2023-08-24T13:43:03;98011.00;;;39.80
7389;BMP180;3735;50.136;11.062;2023-08-24T13:45:30;98018.00;;;39.80
7389;BMP180;3735;50.136;11.062;2023-08-24T13:47:57;98010.00;;;40.00
7389;BMP180;3735;50.136;11.062;2023-08-24T13:50:23;98011.00;;;40.20
7389;BMP180;3735;50.136;11.062;2023-08-24T13:52:49;98012.00;;;39.80
7389;BMP180;3735;50.136;11.062;2023-08-24T13:55:16;98010.00;;;39.20
7389;BMP180;3735;50.136;11.062;2023-08-24T13:57:42;98018.00;;;39.20
7389;BMP180;3735;50.136;11.062;2023-08-24T14:00:09;98026.00;;;38.40
7389;BMP180;3735;50.136;11.062;2023-08-24T14:02:36;98023.00;;;37.80
7389;BMP180;3735;50.136;11.062;2023-08-24T14:05:01;98024.00;;;38.70
7389;BMP180;3735;50.136;11.062;2023-08-24T14:07:27;98014.00;;;38.30
7389;BMP180;3735;50.136;11.062;2023-08-24T14:09:53;98018.00;;;37.20
7389;BMP180;3735;50.136;11.062;2023-08-24T14:12:19;98013.00;;;37.50
7389;BMP180;3735;50.136;11.062;2023-08-24T14:14:44;98016.00;;;37.80
7389;BMP180;3735;50.136;11.062;2023-08-24T14:17:10;98017.00;;;38.20
7389;BMP180;3735;50.136;11.062;2023-08-24T14:19:36;98025.00;;;38.80
7389;BMP180;3735;50.136;11.062;2023-08-24T14:22:02;98017.00;;;38.10
7389;BMP180;3735;50.136;11.062;2023-08-24T14:24:27;98013.00;;;38.70
7389;BMP180;3735;50.136;11.062;2023-08-24T14:26:55;98006.00;;;39.30
7389;BMP180;3735;50.136;11.062;2023-08-24T14:29:20;98000.00;;;37.00
7389;BMP180;3735;50.136;11.062;2023-08-24T14:31:46;97984.00;;;37.30
7389;BMP180;3735;50.136;11.062;2023-08-24T14:34:12;97977.00;;;37.60